Prosser Lakeview, California
Current Conditions -  °F | °C
As of 8:45 AM on Sunday 23 Nov 2014 (Local Time) from KTRK Reporting Station
Light Fog Light Fog  
Wind Chill: -5°   Ceiling: 17000
Heat Index: -5°   Visibility: 8mi
Dew Point: -6°   Wind: 0mph
Humidity: 93%   Direction: NA
Pressure: 30.37"   Gusts: NA
Location:  39.3569°N, 120.175°W
Report Text: KTRK 231645Z 00000KT 8SM BCFG SCT002 SCT070 BKN170 M05/M06 A3037 RMK NOSPECI
Loading
Personal Weather Stations






























Interactive Weather Map New forecast layout! Learn more

10-Day Weather Forecast

Advertisements
Track Severe Weather on mobile